createdAt,value
2022-10-02T00:01:53.804Z,28.20
2022-10-02T00:04:25.584Z,26.08
2022-10-02T00:06:57.855Z,26.67
2022-10-02T00:09:34.031Z,32.60
2022-10-02T00:12:02.540Z,36.38
2022-10-02T00:14:35.563Z,35.10
2022-10-02T00:17:03.683Z,31.77
2022-10-02T00:19:30.598Z,30.52
2022-10-02T00:22:18.174Z,33.33
2022-10-02T00:24:55.852Z,25.33
2022-10-02T00:27:43.736Z,34.53
2022-10-02T00:30:14.394Z,29.95
2022-10-02T00:32:51.366Z,32.35
2022-10-02T00:35:37.136Z,29.25
2022-10-02T00:38:13.687Z,27.98
2022-10-02T00:40:59.147Z,20.50
2022-10-02T00:43:34.985Z,31.15
2022-10-02T00:46:20.396Z,31.35
2022-10-02T00:49:17.122Z,34.67
2022-10-02T00:52:00.523Z,34.03
2022-10-02T00:54:55.459Z,25.77
2022-10-02T00:57:38.259Z,34.10
2022-10-02T01:00:10.796Z,30.45
2022-10-02T01:03:10.455Z,38.05
2022-10-02T01:05:38.140Z,25.08
2022-10-02T01:08:05.971Z,20.23
2022-10-02T01:10:35.029Z,33.10
2022-10-02T01:13:01.858Z,23.95
2022-10-02T01:15:33.629Z,33.90
2022-10-02T01:18:02.248Z,17.02
2022-10-02T01:20:35.082Z,28.85
2022-10-02T01:23:09.068Z,25.15
2022-10-02T01:25:37.310Z,35.20
2022-10-02T01:28:05.741Z,26.13
2022-10-02T01:30:36.252Z,26.17
2022-10-02T01:33:05.315Z,17.90
2022-10-02T01:35:35.613Z,32.20
2022-10-02T01:38:07.634Z,24.05
2022-10-02T01:40:38.217Z,25.20
2022-10-02T01:43:06.878Z,12.52
2022-10-02T01:45:59.530Z,22.88
2022-10-02T01:48:45.102Z,19.83
2022-10-02T01:51:29.420Z,15.85
2022-10-02T01:54:08.603Z,20.55
2022-10-02T01:56:45.624Z,23.52
2022-10-02T01:59:24.066Z,21.10
2022-10-02T02:02:04.404Z,14.77
2022-10-02T02:04:41.861Z,27.83
2022-10-02T02:07:14.300Z,20.70
2022-10-02T02:09:46.225Z,25.55
2022-10-02T02:12:20.810Z,31.30
2022-10-02T02:14:53.097Z,21.45
2022-10-02T02:17:26.596Z,24.50
2022-10-02T02:20:01.968Z,20.63
2022-10-02T02:22:31.083Z,19.63
2022-10-02T02:25:01.837Z,16.55
2022-10-02T02:27:36.103Z,24.92
2022-10-02T02:30:07.011Z,20.23
2022-10-02T02:32:37.713Z,19.98
2022-10-02T02:35:07.913Z,16.42
2022-10-02T02:37:39.861Z,19.45
2022-10-02T02:40:11.376Z,23.20
2022-10-02T02:42:42.509Z,21.52
2022-10-02T02:45:13.875Z,27.30
2022-10-02T02:47:46.236Z,19.67
2022-10-02T02:50:18.660Z,20.60
2022-10-02T02:52:50.222Z,17.95
2022-10-02T02:55:21.959Z,17.17
2022-10-02T02:57:55.569Z,17.85
2022-10-02T03:00:24.099Z,21.52
2022-10-02T03:02:54.481Z,20.83
2022-10-02T03:05:24.350Z,19.90
2022-10-02T03:07:54.524Z,20.15
2022-10-02T03:10:39.744Z,12.70
2022-10-02T03:13:21.023Z,19.80
2022-10-02T03:15:59.424Z,21.67
2022-10-02T03:18:43.803Z,18.42
2022-10-02T03:21:16.021Z,18.55
2022-10-02T03:23:56.335Z,22.25
2022-10-02T03:26:32.633Z,21.05
2022-10-02T03:29:06.883Z,19.80
2022-10-02T03:31:35.347Z,15.30
2022-10-02T03:34:04.151Z,19.35
2022-10-02T03:36:31.509Z,21.10
2022-10-02T03:41:49.121Z,31.95
2022-10-02T03:44:17.317Z,17.42
2022-10-02T03:46:44.138Z,20.25
2022-10-02T03:49:11.077Z,23.42
2022-10-02T03:51:37.892Z,14.85
2022-10-02T03:54:13.545Z,14.25
2022-10-02T03:56:44.833Z,13.35
2022-10-02T03:59:17.914Z,13.98
2022-10-02T04:01:50.875Z,17.75
2022-10-02T04:04:24.852Z,11.88
2022-10-02T04:06:57.014Z,23.85
2022-10-02T04:09:29.814Z,11.25
2022-10-02T04:12:01.057Z,15.18
2022-10-02T04:14:34.641Z,22.00
2022-10-02T04:17:07.584Z,18.05
2022-10-02T04:19:40.390Z,17.10
2022-10-02T04:22:13.740Z,21.97
2022-10-02T04:24:45.994Z,18.52
2022-10-02T04:27:18.884Z,19.20
2022-10-02T04:29:50.124Z,34.00
2022-10-02T04:32:25.498Z,17.75
2022-10-02T04:34:52.862Z,28.27
2022-10-02T04:37:53.067Z,27.35
2022-10-02T04:40:35.249Z,20.67
2022-10-02T04:43:14.680Z,19.50
2022-10-02T04:45:54.205Z,21.95
2022-10-02T04:48:38.636Z,27.45
2022-10-02T04:51:15.813Z,21.88
2022-10-02T04:53:58.040Z,16.25
2022-10-02T04:56:44.341Z,21.02
2022-10-02T04:59:25.859Z,15.68
2022-10-02T05:02:06.253Z,14.15
2022-10-02T05:05:03.364Z,20.02
2022-10-02T05:07:41.431Z,15.27
2022-10-02T05:10:28.462Z,17.70
2022-10-02T05:13:05.349Z,16.70
2022-10-02T05:15:52.931Z,24.08
2022-10-02T05:18:46.151Z,14.00
2022-10-02T05:21:29.488Z,32.40
2022-10-02T05:24:14.846Z,13.70
2022-10-02T05:27:02.018Z,20.05
2022-10-02T05:29:45.704Z,21.52
2022-10-02T05:32:27.510Z,14.75
2022-10-02T05:35:13.572Z,17.63
2022-10-02T05:37:52.580Z,30.48
2022-10-02T05:40:26.696Z,14.80
2022-10-02T05:43:02.344Z,27.90
2022-10-02T05:45:35.668Z,13.85
2022-10-02T05:48:12.396Z,21.25
2022-10-02T05:50:41.773Z,10.27
2022-10-02T05:53:19.132Z,15.50
2022-10-02T05:55:50.709Z,22.45
2022-10-02T05:58:26.317Z,11.95
2022-10-02T06:01:00.658Z,16.23
2022-10-02T06:03:35.945Z,16.00
2022-10-02T06:06:10.709Z,12.18
2022-10-02T06:08:42.990Z,14.90
2022-10-02T06:11:18.923Z,14.73
2022-10-02T06:13:49.976Z,17.60
2022-10-02T06:16:23.260Z,12.00
2022-10-02T06:18:55.539Z,17.45
2022-10-02T06:21:33.297Z,16.27
2022-10-02T06:24:06.039Z,14.43
2022-10-02T06:26:41.190Z,14.30
2022-10-02T06:29:18.085Z,20.73
2022-10-02T06:31:51.313Z,17.20
2022-10-02T06:34:18.317Z,16.55
2022-10-02T06:37:01.214Z,14.82
2022-10-02T06:39:54.692Z,13.05
2022-10-02T06:42:34.757Z,22.17
2022-10-02T06:45:10.508Z,19.98
2022-10-02T06:47:51.776Z,16.35
2022-10-02T06:50:30.821Z,12.73
2022-10-02T06:53:06.484Z,38.80
2022-10-02T06:55:45.412Z,9.85
2022-10-02T06:58:34.724Z,16.15
2022-10-02T07:01:15.219Z,15.63
2022-10-02T07:04:00.393Z,11.77
2022-10-02T07:06:40.589Z,9.43
2022-10-02T07:09:53.210Z,12.20
2022-10-02T07:12:50.261Z,15.77
2022-10-02T07:15:29.737Z,7.47
2022-10-02T07:18:08.979Z,9.13
2022-10-02T07:20:42.781Z,14.63
2022-10-02T07:25:59.074Z,8.45
2022-10-02T07:28:36.848Z,9.30
2022-10-02T07:31:11.432Z,6.93
2022-10-02T07:33:58.242Z,8.90
2022-10-02T07:36:38.054Z,6.85
2022-10-02T07:39:16.433Z,10.63
2022-10-02T07:42:36.137Z,6.43
2022-10-02T07:45:20.675Z,9.30
2022-10-02T07:48:11.375Z,7.65
2022-10-02T07:50:49.186Z,4.85
2022-10-02T07:53:24.487Z,4.70
2022-10-02T07:55:53.790Z,6.95
2022-10-02T07:58:31.407Z,9.60
2022-10-02T08:01:03.348Z,6.47
2022-10-02T08:03:37.515Z,7.35
2022-10-02T08:06:06.429Z,4.85
2022-10-02T08:08:39.874Z,6.82
2022-10-02T08:11:09.700Z,7.85
2022-10-02T08:13:41.227Z,7.68
2022-10-02T08:16:11.062Z,5.25
2022-10-02T08:18:42.285Z,9.35
2022-10-02T08:21:14.703Z,8.27
2022-10-02T08:23:46.996Z,7.05
2022-10-02T08:26:20.102Z,10.00
2022-10-02T08:28:52.774Z,5.75
2022-10-02T08:31:23.405Z,8.60
2022-10-02T08:33:50.322Z,6.72
2022-10-02T08:36:46.850Z,3.63
2022-10-02T08:39:32.310Z,10.32
2022-10-02T08:42:18.385Z,11.52
2022-10-02T08:45:14.591Z,14.32
2022-10-02T08:48:24.175Z,5.57
2022-10-02T08:51:11.048Z,10.68
2022-10-02T08:54:13.250Z,5.75
2022-10-02T08:56:51.635Z,8.65
2022-10-02T08:59:42.254Z,8.63
2022-10-02T09:02:51.822Z,6.13
2022-10-02T09:05:57.985Z,9.25
2022-10-02T09:09:12.707Z,7.72
2022-10-02T09:12:13.092Z,5.55
2022-10-02T09:14:49.503Z,6.07
2022-10-02T09:17:32.723Z,4.28
2022-10-02T09:20:29.400Z,8.75
2022-10-02T09:23:22.228Z,10.52
2022-10-02T09:25:56.615Z,6.82
2022-10-02T09:28:56.025Z,6.85
2022-10-02T09:31:58.545Z,4.18
2022-10-02T09:34:58.368Z,10.15
2022-10-02T09:37:59.494Z,4.32
2022-10-02T09:41:10.676Z,10.02
2022-10-02T09:44:18.536Z,5.38
2022-10-02T09:47:12.571Z,5.93
2022-10-02T09:50:17.659Z,8.57
2022-10-02T09:53:21.623Z,6.35
2022-10-02T09:56:14.115Z,7.63
2022-10-02T09:59:10.521Z,5.18
2022-10-02T10:01:54.479Z,5.05
2022-10-02T10:05:05.058Z,6.72
2022-10-02T10:08:09.082Z,7.72
2022-10-02T10:10:55.767Z,6.75
2022-10-02T10:13:59.771Z,6.05
2022-10-02T10:16:55.939Z,5.90
2022-10-02T10:19:59.988Z,5.72
2022-10-02T10:22:49.008Z,5.65
2022-10-02T10:25:31.800Z,12.93
2022-10-02T10:28:39.774Z,8.75
2022-10-02T10:31:35.180Z,10.00
2022-10-02T10:34:27.478Z,4.35
2022-10-02T10:37:18.773Z,8.48
2022-10-02T10:40:25.687Z,7.40
2022-10-02T10:43:32.139Z,6.15
2022-10-02T10:46:41.107Z,7.30
2022-10-02T10:49:36.518Z,7.30
2022-10-02T10:52:15.255Z,9.95
2022-10-02T10:55:08.062Z,8.95
2022-10-02T10:57:48.633Z,9.48
2022-10-02T11:00:20.402Z,11.60
2022-10-02T11:03:27.787Z,6.10
2022-10-02T11:06:22.534Z,10.73
2022-10-02T11:09:40.908Z,13.48
2022-10-02T11:12:28.253Z,10.90
2022-10-02T11:15:13.241Z,4.68
2022-10-02T11:17:56.742Z,8.77
2022-10-02T11:21:01.355Z,7.40
2022-10-02T11:26:32.405Z,21.80
2022-10-02T11:29:19.760Z,10.88
2022-10-02T11:32:04.211Z,15.88
2022-10-02T11:34:56.841Z,6.07
2022-10-02T11:37:41.493Z,12.77
2022-10-02T11:40:34.888Z,10.15
2022-10-02T11:43:28.781Z,10.50
2022-10-02T11:46:34.122Z,10.05
2022-10-02T11:49:53.407Z,9.45
2022-10-02T11:53:05.452Z,11.27
2022-10-02T11:55:47.084Z,9.55
2022-10-02T11:58:22.391Z,11.52
2022-10-02T12:01:07.939Z,9.13
2022-10-02T12:03:49.447Z,10.55
2022-10-02T12:06:26.042Z,8.70
2022-10-02T12:09:02.849Z,7.25
2022-10-02T12:11:42.159Z,13.30
2022-10-02T12:14:19.111Z,16.02
2022-10-02T12:17:01.126Z,13.43
2022-10-02T12:20:01.090Z,15.75
2022-10-02T12:22:54.690Z,14.68
2022-10-02T12:25:48.149Z,11.07
2022-10-02T12:28:23.467Z,12.77
2022-10-02T12:31:01.355Z,9.23
2022-10-02T12:33:37.094Z,12.23
2022-10-02T12:36:45.796Z,17.88
2022-10-02T12:39:25.211Z,14.20
2022-10-02T12:42:06.610Z,14.90
2022-10-02T12:44:47.710Z,12.10
2022-10-02T12:47:40.289Z,11.32
2022-10-02T12:50:23.375Z,11.40
2022-10-02T12:53:28.557Z,8.85
2022-10-02T12:56:18.325Z,11.05
2022-10-02T12:58:56.653Z,11.57
2022-10-02T13:01:53.500Z,20.90
2022-10-02T13:04:40.480Z,11.05
2022-10-02T13:07:58.188Z,11.85
2022-10-02T13:10:26.628Z,9.73
2022-10-02T13:13:10.175Z,12.25
2022-10-02T13:15:45.475Z,12.15
2022-10-02T13:18:31.000Z,20.35
2022-10-02T13:21:06.094Z,7.57
2022-10-02T13:23:42.133Z,9.55
2022-10-02T13:26:16.612Z,16.88
2022-10-02T13:28:57.278Z,12.50
2022-10-02T13:31:39.272Z,6.70
2022-10-02T13:34:34.118Z,9.02
2022-10-02T13:37:18.194Z,13.50
2022-10-02T13:40:17.334Z,8.85
2022-10-02T13:43:03.480Z,8.80
2022-10-02T13:45:38.945Z,16.02
2022-10-02T13:48:16.615Z,12.20
2022-10-02T13:50:52.596Z,10.63
2022-10-02T13:53:52.477Z,5.68
2022-10-02T13:56:36.060Z,9.00
2022-10-02T13:59:20.505Z,15.02
2022-10-02T14:02:01.995Z,16.40
2022-10-02T14:04:47.304Z,14.15
2022-10-02T14:07:38.728Z,10.63
2022-10-02T14:10:15.545Z,11.13
2022-10-02T14:13:00.372Z,10.68
2022-10-02T14:15:48.982Z,9.45
2022-10-02T14:18:31.858Z,16.58
2022-10-02T14:21:09.072Z,12.15
2022-10-02T14:23:59.518Z,12.85
2022-10-02T14:26:39.965Z,10.75
2022-10-02T14:29:20.271Z,6.72
2022-10-02T14:32:05.370Z,7.35
2022-10-02T14:34:45.230Z,6.78
2022-10-02T14:38:05.982Z,8.15
2022-10-02T14:40:45.879Z,7.85
2022-10-02T14:43:43.533Z,8.43
2022-10-02T14:46:29.802Z,12.13
2022-10-02T14:49:21.926Z,4.97
2022-10-02T14:52:05.619Z,6.82
2022-10-02T14:54:48.414Z,9.40
2022-10-02T14:57:34.592Z,13.48
2022-10-02T15:00:20.054Z,7.90
2022-10-02T15:03:10.180Z,9.20
2022-10-02T15:06:21.882Z,12.18
2022-10-02T15:08:53.326Z,9.18
2022-10-02T15:11:29.465Z,14.45
2022-10-02T15:14:03.214Z,10.70
2022-10-02T15:19:27.230Z,11.18
2022-10-02T15:24:31.133Z,14.50
2022-10-02T15:29:44.793Z,8.23
2022-10-02T15:32:34.642Z,11.80
2022-10-02T15:35:18.580Z,15.13
2022-10-02T15:37:56.760Z,13.68
2022-10-02T15:40:31.472Z,10.88
2022-10-02T15:43:18.727Z,4.00
2022-10-02T15:46:05.305Z,5.63
2022-10-02T15:48:52.520Z,15.15
2022-10-02T15:51:36.221Z,6.32
2022-10-02T15:54:16.435Z,9.80
2022-10-02T15:57:11.961Z,16.15
2022-10-02T15:59:54.659Z,12.05
2022-10-02T16:02:35.899Z,13.20
2022-10-02T16:05:21.197Z,15.38
2022-10-02T16:08:18.471Z,20.70
2022-10-02T16:11:04.097Z,7.55
2022-10-02T16:13:47.358Z,14.10
2022-10-02T16:16:32.247Z,14.25
2022-10-02T16:19:15.896Z,14.32
2022-10-02T16:22:01.768Z,7.25
2022-10-02T16:24:45.677Z,14.60
2022-10-02T16:27:32.578Z,15.73
2022-10-02T16:30:11.244Z,6.88
2022-10-02T16:33:00.732Z,17.05
2022-10-02T16:35:53.843Z,15.50
2022-10-02T16:38:28.472Z,7.88
2022-10-02T16:40:58.060Z,10.50
2022-10-02T16:43:43.599Z,13.07
2022-10-02T16:46:13.953Z,16.73
2022-10-02T16:48:52.242Z,12.00
2022-10-02T16:51:40.417Z,10.77
2022-10-02T16:54:17.162Z,10.95
2022-10-02T16:56:51.168Z,12.45
2022-10-02T16:59:24.255Z,7.90
2022-10-02T17:02:16.570Z,13.07
2022-10-02T17:04:55.257Z,14.50
2022-10-02T17:07:32.338Z,15.43
2022-10-02T17:10:07.362Z,6.93
2022-10-02T17:12:45.296Z,7.43
2022-10-02T17:15:22.049Z,9.80
2022-10-02T17:18:06.660Z,6.93
2022-10-02T17:20:42.532Z,12.45
2022-10-02T17:23:16.696Z,12.00
2022-10-02T17:25:49.658Z,7.47
2022-10-02T17:28:25.824Z,8.60
2022-10-02T17:31:18.245Z,13.35
2022-10-02T17:33:50.459Z,13.02
2022-10-02T17:36:28.286Z,12.40
2022-10-02T17:39:18.364Z,6.00
2022-10-02T17:41:53.688Z,6.15
2022-10-02T17:44:34.085Z,19.55
2022-10-02T17:47:21.788Z,10.93
2022-10-02T17:50:04.409Z,14.75
2022-10-02T17:52:57.726Z,7.70
2022-10-02T17:56:02.995Z,11.93
2022-10-02T17:58:40.841Z,12.55
2022-10-02T18:01:21.795Z,17.38
2022-10-02T18:03:56.165Z,14.30
2022-10-02T18:06:32.773Z,11.40
2022-10-02T18:09:20.642Z,8.77
2022-10-02T18:12:14.187Z,11.80
2022-10-02T18:15:01.609Z,10.87
2022-10-02T18:17:43.434Z,13.80
2022-10-02T18:20:19.341Z,6.72
2022-10-02T18:23:05.933Z,12.18
2022-10-02T18:25:40.710Z,9.52
2022-10-02T18:28:21.435Z,6.97
2022-10-02T18:30:59.476Z,9.82
2022-10-02T18:33:38.083Z,13.50
2022-10-02T18:36:37.544Z,14.25
2022-10-02T18:39:17.481Z,12.50
2022-10-02T18:41:55.944Z,14.15
2022-10-02T18:44:38.126Z,14.98
2022-10-02T18:47:13.921Z,9.35
2022-10-02T18:49:56.683Z,14.65
2022-10-02T18:52:59.354Z,15.43
2022-10-02T18:55:41.170Z,5.57
2022-10-02T18:58:21.405Z,20.00
2022-10-02T19:01:06.268Z,12.82
2022-10-02T19:03:45.084Z,20.52
2022-10-02T19:06:17.973Z,39.33
2022-10-02T19:09:01.268Z,22.95
2022-10-02T19:11:30.431Z,21.53
2022-10-02T19:14:02.297Z,32.67
2022-10-02T19:16:31.194Z,12.90
2022-10-02T19:19:09.887Z,15.05
2022-10-02T19:21:37.969Z,14.45
2022-10-02T19:24:09.980Z,12.77
2022-10-02T19:26:44.087Z,15.63
2022-10-02T19:29:26.229Z,13.80
2022-10-02T19:31:57.782Z,9.02
2022-10-02T19:34:28.448Z,19.83
2022-10-02T19:36:59.033Z,14.88
2022-10-02T19:39:30.651Z,13.68
2022-10-02T19:42:00.811Z,16.55
2022-10-02T19:44:31.267Z,11.20
2022-10-02T19:47:03.527Z,12.02
2022-10-02T19:49:38.415Z,11.98
2022-10-02T19:52:26.814Z,13.98
2022-10-02T19:54:53.828Z,10.73
2022-10-02T19:57:25.820Z,11.57
2022-10-02T19:59:54.454Z,15.20
2022-10-02T20:02:27.006Z,10.65
2022-10-02T20:04:57.228Z,9.35
2022-10-02T20:07:28.676Z,14.95
2022-10-02T20:09:59.919Z,8.55
2022-10-02T20:12:32.152Z,14.88
2022-10-02T20:15:03.285Z,16.55
2022-10-02T20:17:32.464Z,14.38
2022-10-02T20:20:04.745Z,18.27
2022-10-02T20:22:35.009Z,7.38
2022-10-02T20:25:06.580Z,10.52
2022-10-02T20:27:41.343Z,11.10
2022-10-02T20:30:13.706Z,10.38
2022-10-02T20:32:47.532Z,8.77
2022-10-02T20:35:18.954Z,5.93
2022-10-02T20:37:49.144Z,15.48
2022-10-02T20:40:19.306Z,7.60
2022-10-02T20:42:53.021Z,16.75
2022-10-02T20:45:23.397Z,13.52
2022-10-02T20:49:06.502Z,13.38
2022-10-02T20:51:53.056Z,12.07
2022-10-02T20:54:50.393Z,17.70
2022-10-02T20:58:00.561Z,16.88
2022-10-02T21:00:41.433Z,16.58
2022-10-02T21:03:25.891Z,11.27
2022-10-02T21:06:24.405Z,9.35
2022-10-02T21:09:14.576Z,11.00
2022-10-02T21:12:00.983Z,11.63
2022-10-02T21:14:45.193Z,12.27
2022-10-02T21:20:51.776Z,10.90
2022-10-02T21:23:39.552Z,12.52
2022-10-02T21:26:55.306Z,11.35
2022-10-02T21:29:37.156Z,13.45
2022-10-02T21:32:33.118Z,11.25
2022-10-02T21:35:13.941Z,16.35
2022-10-02T21:38:00.225Z,10.10
2022-10-02T21:41:07.170Z,18.10
2022-10-02T21:44:18.484Z,18.73
2022-10-02T21:47:19.130Z,13.60
2022-10-02T21:50:36.127Z,22.45
2022-10-02T21:53:38.775Z,12.95
2022-10-02T21:56:38.843Z,16.17
2022-10-02T21:59:29.447Z,19.40
2022-10-02T22:02:38.392Z,20.70
2022-10-02T22:05:57.038Z,18.60
2022-10-02T22:08:32.587Z,16.20
2022-10-02T22:11:09.745Z,14.40
2022-10-02T22:13:37.919Z,36.75
2022-10-02T22:16:22.163Z,26.65
2022-10-02T22:21:42.485Z,26.55
2022-10-02T22:24:23.927Z,18.92
2022-10-02T22:27:08.493Z,20.60
2022-10-02T22:29:46.324Z,14.35
2022-10-02T22:32:52.867Z,9.40
2022-10-02T22:35:29.944Z,18.13
2022-10-02T22:38:11.583Z,14.85
2022-10-02T22:40:46.951Z,13.30
2022-10-02T22:43:21.823Z,17.10
2022-10-02T22:45:56.910Z,10.88
2022-10-02T22:48:33.739Z,12.35
2022-10-02T22:51:10.019Z,15.38
2022-10-02T22:53:44.454Z,22.67
2022-10-02T22:56:22.710Z,20.27
2022-10-02T22:58:56.547Z,12.25
2022-10-02T23:01:30.893Z,16.08
2022-10-02T23:04:03.686Z,10.85
2022-10-02T23:06:37.573Z,25.77
2022-10-02T23:09:12.592Z,20.27
2022-10-02T23:11:47.531Z,9.00
2022-10-02T23:14:22.826Z,8.93
2022-10-02T23:16:56.420Z,11.60
2022-10-02T23:19:28.336Z,15.70
2022-10-02T23:22:01.417Z,23.33
2022-10-02T23:24:33.983Z,11.80
2022-10-02T23:27:10.685Z,8.95
2022-10-02T23:29:54.244Z,15.40
2022-10-02T23:32:27.296Z,16.13
2022-10-02T23:35:03.674Z,15.73
2022-10-02T23:37:42.913Z,10.65
2022-10-02T23:40:44.770Z,31.67
2022-10-02T23:43:16.942Z,14.32
2022-10-02T23:45:51.737Z,12.52
2022-10-02T23:48:18.966Z,9.35
2022-10-02T23:50:54.562Z,12.05
2022-10-02T23:53:52.576Z,9.75
2022-10-02T23:56:44.332Z,12.48
2022-10-02T23:59:35.885Z,19.75
